Terminal Aerodrome Forecast
Issued by NWS North Platte, NE

Home | Current Version | Previous Version | Graphics & Text | Print | Product List | Glossary On
Versions: 1 2 3 4 5 6 7 8 9 10 11 12 13 14 15 16 17 18 19 20 21 22 23
000
FTUS43 KLBF 241300 AAA
TAFVTN
TAF AMD
KVTN 241355Z 2414/2512 08009KT P6SM VCSH OVC003
      TEMPO 2414/2416 5SM -RA BR OVC005
     FM241600 08008KT P6SM VCSH OVC008
     FM241900 08008KT P6SM OVC015
     FM250200 08007KT P6SM OVC010=

USA.gov is the U.S. government's official web portal to all federal, state and local government web resources and services.